sensor_id;sensor_type;location;lat;lon;timestamp;P1;durP1;ratioP1;P2;durP2;ratioP2
42834;SDS011;29335;50.526;30.458;2022-10-29T00:01:46;22.80;;;20.27;;
42834;SDS011;29335;50.526;30.458;2022-10-29T00:04:12;25.70;;;19.95;;
42834;SDS011;29335;50.526;30.458;2022-10-29T00:06:37;27.08;;;21.23;;
42834;SDS011;29335;50.526;30.458;2022-10-29T00:09:03;23.88;;;21.27;;
42834;SDS011;29335;50.526;30.458;2022-10-29T00:11:29;23.45;;;20.95;;
42834;SDS011;29335;50.526;30.458;2022-10-29T00:13:56;26.77;;;20.40;;
42834;SDS011;29335;50.526;30.458;2022-10-29T00:16:26;23.48;;;19.55;;
42834;SDS011;29335;50.526;30.458;2022-10-29T00:18:53;22.45;;;20.02;;
42834;SDS011;29335;50.526;30.458;2022-10-29T00:21:20;25.98;;;20.23;;
42834;SDS011;29335;50.526;30.458;2022-10-29T00:23:47;23.95;;;20.98;;
42834;SDS011;29335;50.526;30.458;2022-10-29T00:26:13;25.90;;;20.65;;
42834;SDS011;29335;50.526;30.458;2022-10-29T00:28:40;25.23;;;20.55;;
42834;SDS011;29335;50.526;30.458;2022-10-29T00:31:07;25.55;;;20.15;;
42834;SDS011;29335;50.526;30.458;2022-10-29T00:33:35;27.70;;;21.20;;
42834;SDS011;29335;50.526;30.458;2022-10-29T00:36:02;22.98;;;20.38;;
42834;SDS011;29335;50.526;30.458;2022-10-29T00:38:30;26.73;;;20.55;;
42834;SDS011;29335;50.526;30.458;2022-10-29T00:40:57;25.83;;;21.80;;
42834;SDS011;29335;50.526;30.458;2022-10-29T00:43:23;24.85;;;22.00;;
42834;SDS011;29335;50.526;30.458;2022-10-29T00:45:57;25.90;;;20.77;;
42834;SDS011;29335;50.526;30.458;2022-10-29T00:48:26;27.05;;;21.92;;
42834;SDS011;29335;50.526;30.458;2022-10-29T00:50:56;29.55;;;21.30;;
42834;SDS011;29335;50.526;30.458;2022-10-29T00:53:24;28.02;;;21.65;;
42834;SDS011;29335;50.526;30.458;2022-10-29T00:55:52;26.15;;;22.05;;
42834;SDS011;29335;50.526;30.458;2022-10-29T00:58:18;24.55;;;21.77;;
42834;SDS011;29335;50.526;30.458;2022-10-29T01:00:45;27.17;;;21.85;;
42834;SDS011;29335;50.526;30.458;2022-10-29T01:03:11;28.58;;;22.15;;
42834;SDS011;29335;50.526;30.458;2022-10-29T01:05:37;25.95;;;21.77;;
42834;SDS011;29335;50.526;30.458;2022-10-29T01:08:03;28.23;;;22.20;;
42834;SDS011;29335;50.526;30.458;2022-10-29T01:13:18;29.08;;;22.35;;
42834;SDS011;29335;50.526;30.458;2022-10-29T01:18:39;28.17;;;21.75;;
42834;SDS011;29335;50.526;30.458;2022-10-29T01:29:34;26.33;;;21.73;;
42834;SDS011;29335;50.526;30.458;2022-10-29T01:35:18;26.45;;;21.33;;
42834;SDS011;29335;50.526;30.458;2022-10-29T01:38:04;27.40;;;22.10;;
42834;SDS011;29335;50.526;30.458;2022-10-29T01:43:44;31.50;;;22.50;;
42834;SDS011;29335;50.526;30.458;2022-10-29T01:46:16;25.25;;;21.08;;
42834;SDS011;29335;50.526;30.458;2022-10-29T01:48:47;25.55;;;21.80;;
42834;SDS011;29335;50.526;30.458;2022-10-29T01:51:19;29.15;;;21.58;;
42834;SDS011;29335;50.526;30.458;2022-10-29T01:53:47;27.60;;;22.08;;
42834;SDS011;29335;50.526;30.458;2022-10-29T01:56:14;28.38;;;21.88;;
42834;SDS011;29335;50.526;30.458;2022-10-29T01:58:41;27.50;;;21.73;;
42834;SDS011;29335;50.526;30.458;2022-10-29T02:12:27;31.38;;;22.40;;
42834;SDS011;29335;50.526;30.458;2022-10-29T02:15:05;26.45;;;21.42;;
42834;SDS011;29335;50.526;30.458;2022-10-29T02:17:34;28.42;;;21.67;;
42834;SDS011;29335;50.526;30.458;2022-10-29T02:20:04;26.85;;;21.30;;
42834;SDS011;29335;50.526;30.458;2022-10-29T02:22:31;27.15;;;20.63;;
42834;SDS011;29335;50.526;30.458;2022-10-29T02:24:57;26.80;;;21.40;;
42834;SDS011;29335;50.526;30.458;2022-10-29T02:27:23;24.70;;;21.02;;
42834;SDS011;29335;50.526;30.458;2022-10-29T02:29:48;31.48;;;21.67;;
42834;SDS011;29335;50.526;30.458;2022-10-29T02:32:14;26.55;;;21.38;;
42834;SDS011;29335;50.526;30.458;2022-10-29T02:34:39;29.90;;;21.38;;
42834;SDS011;29335;50.526;30.458;2022-10-29T02:37:05;25.15;;;21.80;;
42834;SDS011;29335;50.526;30.458;2022-10-29T02:39:30;25.98;;;21.08;;
42834;SDS011;29335;50.526;30.458;2022-10-29T02:41:56;25.00;;;21.00;;
42834;SDS011;29335;50.526;30.458;2022-10-29T02:44:22;29.17;;;22.65;;
42834;SDS011;29335;50.526;30.458;2022-10-29T02:46:48;24.58;;;21.35;;
42834;SDS011;29335;50.526;30.458;2022-10-29T02:49:13;28.17;;;21.50;;
42834;SDS011;29335;50.526;30.458;2022-10-29T02:51:39;27.60;;;21.38;;
42834;SDS011;29335;50.526;30.458;2022-10-29T02:54:04;26.38;;;22.52;;
42834;SDS011;29335;50.526;30.458;2022-10-29T02:56:30;26.20;;;21.35;;
42834;SDS011;29335;50.526;30.458;2022-10-29T02:58:55;31.17;;;22.48;;
42834;SDS011;29335;50.526;30.458;2022-10-29T03:01:21;28.40;;;22.02;;
42834;SDS011;29335;50.526;30.458;2022-10-29T03:03:47;27.77;;;21.92;;
42834;SDS011;29335;50.526;30.458;2022-10-29T03:06:13;28.35;;;22.17;;
42834;SDS011;29335;50.526;30.458;2022-10-29T03:08:39;26.17;;;21.50;;
42834;SDS011;29335;50.526;30.458;2022-10-29T03:11:05;30.10;;;22.63;;
42834;SDS011;29335;50.526;30.458;2022-10-29T03:13:30;28.20;;;21.27;;
42834;SDS011;29335;50.526;30.458;2022-10-29T03:15:56;26.27;;;22.27;;
42834;SDS011;29335;50.526;30.458;2022-10-29T03:18:21;31.45;;;22.38;;
42834;SDS011;29335;50.526;30.458;2022-10-29T03:20:47;29.42;;;23.02;;
42834;SDS011;29335;50.526;30.458;2022-10-29T03:23:12;28.33;;;22.45;;
42834;SDS011;29335;50.526;30.458;2022-10-29T03:25:38;29.33;;;22.55;;
42834;SDS011;29335;50.526;30.458;2022-10-29T03:28:04;29.20;;;22.98;;
42834;SDS011;29335;50.526;30.458;2022-10-29T03:30:29;28.13;;;22.90;;
42834;SDS011;29335;50.526;30.458;2022-10-29T03:32:55;29.80;;;24.23;;
42834;SDS011;29335;50.526;30.458;2022-10-29T03:35:20;29.13;;;21.58;;
42834;SDS011;29335;50.526;30.458;2022-10-29T03:37:49;32.65;;;23.25;;
42834;SDS011;29335;50.526;30.458;2022-10-29T03:40:16;28.35;;;22.67;;
42834;SDS011;29335;50.526;30.458;2022-10-29T03:42:43;30.45;;;23.63;;
42834;SDS011;29335;50.526;30.458;2022-10-29T03:45:09;29.33;;;22.88;;
42834;SDS011;29335;50.526;30.458;2022-10-29T03:47:35;31.73;;;23.65;;
42834;SDS011;29335;50.526;30.458;2022-10-29T03:50:01;31.50;;;23.70;;
42834;SDS011;29335;50.526;30.458;2022-10-29T03:52:26;29.38;;;22.98;;
42834;SDS011;29335;50.526;30.458;2022-10-29T03:54:52;29.33;;;23.75;;
42834;SDS011;29335;50.526;30.458;2022-10-29T03:57:18;27.33;;;22.67;;
42834;SDS011;29335;50.526;30.458;2022-10-29T03:59:44;30.92;;;23.55;;
42834;SDS011;29335;50.526;30.458;2022-10-29T04:02:09;30.73;;;23.83;;
42834;SDS011;29335;50.526;30.458;2022-10-29T04:04:36;25.45;;;22.63;;
42834;SDS011;29335;50.526;30.458;2022-10-29T04:07:02;28.42;;;24.27;;
42834;SDS011;29335;50.526;30.458;2022-10-29T04:09:28;32.08;;;23.70;;
42834;SDS011;29335;50.526;30.458;2022-10-29T04:11:54;33.20;;;23.17;;
42834;SDS011;29335;50.526;30.458;2022-10-29T04:14:20;32.97;;;24.75;;
42834;SDS011;29335;50.526;30.458;2022-10-29T04:16:45;30.13;;;23.55;;
42834;SDS011;29335;50.526;30.458;2022-10-29T04:19:11;30.75;;;23.88;;
42834;SDS011;29335;50.526;30.458;2022-10-29T04:21:36;31.30;;;23.95;;
42834;SDS011;29335;50.526;30.458;2022-10-29T04:24:02;28.83;;;23.55;;
42834;SDS011;29335;50.526;30.458;2022-10-29T04:26:28;29.48;;;24.38;;
42834;SDS011;29335;50.526;30.458;2022-10-29T04:28:53;30.90;;;23.77;;
42834;SDS011;29335;50.526;30.458;2022-10-29T04:31:19;27.35;;;23.23;;
42834;SDS011;29335;50.526;30.458;2022-10-29T04:33:44;30.50;;;24.50;;
42834;SDS011;29335;50.526;30.458;2022-10-29T04:36:10;30.70;;;23.88;;
42834;SDS011;29335;50.526;30.458;2022-10-29T04:38:36;29.63;;;23.70;;
42834;SDS011;29335;50.526;30.458;2022-10-29T04:41:02;33.88;;;24.58;;
42834;SDS011;29335;50.526;30.458;2022-10-29T04:43:28;32.22;;;23.85;;
42834;SDS011;29335;50.526;30.458;2022-10-29T04:45:55;31.13;;;24.65;;
42834;SDS011;29335;50.526;30.458;2022-10-29T04:48:22;32.10;;;24.65;;
42834;SDS011;29335;50.526;30.458;2022-10-29T04:50:52;31.83;;;25.60;;
42834;SDS011;29335;50.526;30.458;2022-10-29T04:53:18;32.45;;;25.85;;
42834;SDS011;29335;50.526;30.458;2022-10-29T04:55:44;30.23;;;24.60;;
42834;SDS011;29335;50.526;30.458;2022-10-29T04:58:11;30.58;;;25.42;;
42834;SDS011;29335;50.526;30.458;2022-10-29T05:00:39;36.17;;;25.92;;
42834;SDS011;29335;50.526;30.458;2022-10-29T05:03:05;32.05;;;24.88;;
42834;SDS011;29335;50.526;30.458;2022-10-29T05:05:31;33.25;;;26.45;;
42834;SDS011;29335;50.526;30.458;2022-10-29T05:07:58;32.75;;;26.52;;
42834;SDS011;29335;50.526;30.458;2022-10-29T05:10:28;31.48;;;25.33;;
42834;SDS011;29335;50.526;30.458;2022-10-29T05:12:58;36.77;;;25.83;;
42834;SDS011;29335;50.526;30.458;2022-10-29T05:15:26;29.90;;;24.77;;
42834;SDS011;29335;50.526;30.458;2022-10-29T05:17:53;29.80;;;24.60;;
42834;SDS011;29335;50.526;30.458;2022-10-29T05:20:19;32.05;;;24.73;;
42834;SDS011;29335;50.526;30.458;2022-10-29T05:22:45;31.02;;;25.15;;
42834;SDS011;29335;50.526;30.458;2022-10-29T05:25:10;36.80;;;25.23;;
42834;SDS011;29335;50.526;30.458;2022-10-29T05:27:36;29.60;;;24.55;;
42834;SDS011;29335;50.526;30.458;2022-10-29T05:30:01;33.40;;;24.30;;
42834;SDS011;29335;50.526;30.458;2022-10-29T05:32:27;32.17;;;24.70;;
42834;SDS011;29335;50.526;30.458;2022-10-29T05:34:53;30.05;;;23.75;;
42834;SDS011;29335;50.526;30.458;2022-10-29T05:37:19;31.42;;;23.95;;
42834;SDS011;29335;50.526;30.458;2022-10-29T05:39:44;30.02;;;24.08;;
42834;SDS011;29335;50.526;30.458;2022-10-29T05:42:10;29.33;;;24.13;;
42834;SDS011;29335;50.526;30.458;2022-10-29T05:44:35;31.67;;;23.75;;
42834;SDS011;29335;50.526;30.458;2022-10-29T05:47:01;28.23;;;23.67;;
42834;SDS011;29335;50.526;30.458;2022-10-29T05:49:27;29.58;;;24.40;;
42834;SDS011;29335;50.526;30.458;2022-10-29T05:51:53;30.85;;;24.70;;
42834;SDS011;29335;50.526;30.458;2022-10-29T05:54:18;36.05;;;24.75;;
42834;SDS011;29335;50.526;30.458;2022-10-29T05:56:44;30.48;;;25.02;;
42834;SDS011;29335;50.526;30.458;2022-10-29T05:59:09;33.50;;;24.70;;
42834;SDS011;29335;50.526;30.458;2022-10-29T06:01:35;33.45;;;23.95;;
42834;SDS011;29335;50.526;30.458;2022-10-29T06:04:00;27.83;;;22.73;;
42834;SDS011;29335;50.526;30.458;2022-10-29T06:06:26;29.85;;;23.30;;
42834;SDS011;29335;50.526;30.458;2022-10-29T06:08:52;29.98;;;22.85;;
42834;SDS011;29335;50.526;30.458;2022-10-29T06:11:17;30.17;;;23.55;;
42834;SDS011;29335;50.526;30.458;2022-10-29T06:13:43;30.17;;;23.30;;
42834;SDS011;29335;50.526;30.458;2022-10-29T06:16:09;30.73;;;22.73;;
42834;SDS011;29335;50.526;30.458;2022-10-29T06:18:34;26.75;;;21.98;;
42834;SDS011;29335;50.526;30.458;2022-10-29T06:21:00;29.00;;;22.83;;
42834;SDS011;29335;50.526;30.458;2022-10-29T06:23:26;28.00;;;22.23;;
42834;SDS011;29335;50.526;30.458;2022-10-29T06:25:52;26.33;;;21.23;;
42834;SDS011;29335;50.526;30.458;2022-10-29T06:28:17;29.08;;;22.15;;
42834;SDS011;29335;50.526;30.458;2022-10-29T06:30:47;28.25;;;22.38;;
42834;SDS011;29335;50.526;30.458;2022-10-29T06:33:14;25.77;;;21.75;;
42834;SDS011;29335;50.526;30.458;2022-10-29T06:35:40;23.88;;;20.33;;
42834;SDS011;29335;50.526;30.458;2022-10-29T06:38:06;27.65;;;20.77;;
42834;SDS011;29335;50.526;30.458;2022-10-29T06:40:32;30.02;;;21.65;;
42834;SDS011;29335;50.526;30.458;2022-10-29T06:42:58;26.38;;;20.30;;
42834;SDS011;29335;50.526;30.458;2022-10-29T06:45:25;25.70;;;20.65;;
42834;SDS011;29335;50.526;30.458;2022-10-29T06:47:51;24.75;;;20.63;;
42834;SDS011;29335;50.526;30.458;2022-10-29T06:50:17;26.15;;;20.38;;
42834;SDS011;29335;50.526;30.458;2022-10-29T06:52:42;26.77;;;21.27;;
42834;SDS011;29335;50.526;30.458;2022-10-29T06:55:08;28.98;;;20.50;;
42834;SDS011;29335;50.526;30.458;2022-10-29T06:57:34;25.48;;;19.48;;
42834;SDS011;29335;50.526;30.458;2022-10-29T07:00:00;27.88;;;20.90;;
42834;SDS011;29335;50.526;30.458;2022-10-29T07:02:26;25.58;;;20.27;;
42834;SDS011;29335;50.526;30.458;2022-10-29T07:04:51;27.15;;;20.50;;
42834;SDS011;29335;50.526;30.458;2022-10-29T07:07:17;25.50;;;18.80;;
42834;SDS011;29335;50.526;30.458;2022-10-29T07:09:42;24.55;;;19.88;;
42834;SDS011;29335;50.526;30.458;2022-10-29T07:12:08;25.38;;;19.33;;
42834;SDS011;29335;50.526;30.458;2022-10-29T07:14:34;21.42;;;18.23;;
42834;SDS011;29335;50.526;30.458;2022-10-29T07:16:59;27.60;;;19.98;;
42834;SDS011;29335;50.526;30.458;2022-10-29T07:19:25;23.13;;;18.13;;
42834;SDS011;29335;50.526;30.458;2022-10-29T07:21:51;29.92;;;19.60;;
42834;SDS011;29335;50.526;30.458;2022-10-29T07:24:16;24.23;;;19.83;;
42834;SDS011;29335;50.526;30.458;2022-10-29T07:26:42;23.90;;;18.40;;
42834;SDS011;29335;50.526;30.458;2022-10-29T07:29:08;23.90;;;19.40;;
42834;SDS011;29335;50.526;30.458;2022-10-29T07:31:34;30.23;;;19.75;;
42834;SDS011;29335;50.526;30.458;2022-10-29T07:34:00;24.73;;;19.38;;
42834;SDS011;29335;50.526;30.458;2022-10-29T07:36:25;22.77;;;18.77;;
42834;SDS011;29335;50.526;30.458;2022-10-29T07:38:51;33.78;;;25.77;;
42834;SDS011;29335;50.526;30.458;2022-10-29T07:41:16;75.40;;;57.40;;
42834;SDS011;29335;50.526;30.458;2022-10-29T07:43:42;39.10;;;29.27;;
42834;SDS011;29335;50.526;30.458;2022-10-29T07:46:07;82.43;;;56.75;;
42834;SDS011;29335;50.526;30.458;2022-10-29T07:48:33;39.20;;;30.35;;
42834;SDS011;29335;50.526;30.458;2022-10-29T07:50:59;29.58;;;23.40;;
42834;SDS011;29335;50.526;30.458;2022-10-29T07:53:25;27.48;;;20.08;;
42834;SDS011;29335;50.526;30.458;2022-10-29T07:55:54;26.08;;;19.10;;
42834;SDS011;29335;50.526;30.458;2022-10-29T07:58:20;22.80;;;18.35;;
42834;SDS011;29335;50.526;30.458;2022-10-29T08:00:46;20.00;;;17.83;;
42834;SDS011;29335;50.526;30.458;2022-10-29T08:03:12;20.85;;;17.52;;
42834;SDS011;29335;50.526;30.458;2022-10-29T08:05:38;24.38;;;18.88;;
42834;SDS011;29335;50.526;30.458;2022-10-29T08:08:04;26.63;;;18.05;;
42834;SDS011;29335;50.526;30.458;2022-10-29T08:10:30;23.25;;;17.48;;
42834;SDS011;29335;50.526;30.458;2022-10-29T08:12:57;24.30;;;18.55;;
42834;SDS011;29335;50.526;30.458;2022-10-29T08:15:25;22.08;;;16.92;;
42834;SDS011;29335;50.526;30.458;2022-10-29T08:17:52;23.27;;;17.73;;
42834;SDS011;29335;50.526;30.458;2022-10-29T08:20:18;22.98;;;17.45;;
42834;SDS011;29335;50.526;30.458;2022-10-29T08:22:45;26.95;;;18.55;;
42834;SDS011;29335;50.526;30.458;2022-10-29T08:25:11;23.50;;;17.08;;
42834;SDS011;29335;50.526;30.458;2022-10-29T08:27:36;20.75;;;16.83;;
42834;SDS011;29335;50.526;30.458;2022-10-29T08:30:03;23.25;;;16.65;;
42834;SDS011;29335;50.526;30.458;2022-10-29T08:32:30;20.80;;;16.98;;
42834;SDS011;29335;50.526;30.458;2022-10-29T08:34:55;18.75;;;15.05;;
42834;SDS011;29335;50.526;30.458;2022-10-29T08:37:21;24.23;;;16.17;;
42834;SDS011;29335;50.526;30.458;2022-10-29T08:39:46;20.38;;;15.55;;
42834;SDS011;29335;50.526;30.458;2022-10-29T08:42:22;18.15;;;15.15;;
42834;SDS011;29335;50.526;30.458;2022-10-29T08:45:27;20.40;;;15.88;;
42834;SDS011;29335;50.526;30.458;2022-10-29T08:51:05;22.15;;;15.98;;
42834;SDS011;29335;50.526;30.458;2022-10-29T08:56:20;18.13;;;14.95;;
42834;SDS011;29335;50.526;30.458;2022-10-29T08:58:54;17.77;;;14.30;;
42834;SDS011;29335;50.526;30.458;2022-10-29T09:01:25;20.83;;;14.85;;
42834;SDS011;29335;50.526;30.458;2022-10-29T09:03:51;19.13;;;15.10;;
42834;SDS011;29335;50.526;30.458;2022-10-29T09:23:40;19.17;;;14.05;;
42834;SDS011;29335;50.526;30.458;2022-10-29T09:26:03;20.50;;;14.48;;
42834;SDS011;29335;50.526;30.458;2022-10-29T09:28:50;24.85;;;14.98;;
42834;SDS011;29335;50.526;30.458;2022-10-29T09:34:08;21.08;;;13.75;;
42834;SDS011;29335;50.526;30.458;2022-10-29T09:36:56;22.45;;;14.52;;
42834;SDS011;29335;50.526;30.458;2022-10-29T09:39:33;19.10;;;14.07;;
42834;SDS011;29335;50.526;30.458;2022-10-29T09:42:14;18.30;;;14.10;;
42834;SDS011;29335;50.526;30.458;2022-10-29T09:44:50;21.95;;;13.85;;
42834;SDS011;29335;50.526;30.458;2022-10-29T09:52:37;19.83;;;14.25;;
42834;SDS011;29335;50.526;30.458;2022-10-29T09:55:05;20.30;;;13.07;;
42834;SDS011;29335;50.526;30.458;2022-10-29T09:57:41;17.67;;;13.32;;
42834;SDS011;29335;50.526;30.458;2022-10-29T10:00:29;17.65;;;13.38;;
42834;SDS011;29335;50.526;30.458;2022-10-29T10:06:00;16.05;;;12.70;;
42834;SDS011;29335;50.526;30.458;2022-10-29T10:08:27;19.35;;;13.68;;
42834;SDS011;29335;50.526;30.458;2022-10-29T10:11:00;20.00;;;12.75;;
42834;SDS011;29335;50.526;30.458;2022-10-29T10:13:33;16.73;;;13.07;;
42834;SDS011;29335;50.526;30.458;2022-10-29T10:16:02;17.00;;;12.85;;
42834;SDS011;29335;50.526;30.458;2022-10-29T10:18:39;17.52;;;13.00;;
42834;SDS011;29335;50.526;30.458;2022-10-29T10:23:40;16.77;;;13.32;;
42834;SDS011;29335;50.526;30.458;2022-10-29T10:26:25;17.27;;;11.85;;
42834;SDS011;29335;50.526;30.458;2022-10-29T10:31:50;16.20;;;13.02;;
42834;SDS011;29335;50.526;30.458;2022-10-29T10:34:40;18.23;;;12.68;;
42834;SDS011;29335;50.526;30.458;2022-10-29T10:39:35;16.10;;;12.63;;
42834;SDS011;29335;50.526;30.458;2022-10-29T10:42:13;15.18;;;11.68;;
42834;SDS011;29335;50.526;30.458;2022-10-29T10:44:49;17.80;;;13.10;;
42834;SDS011;29335;50.526;30.458;2022-10-29T10:47:19;18.50;;;14.48;;
42834;SDS011;29335;50.526;30.458;2022-10-29T10:49:47;17.92;;;14.20;;
42834;SDS011;29335;50.526;30.458;2022-10-29T10:52:17;17.35;;;13.80;;
42834;SDS011;29335;50.526;30.458;2022-10-29T10:54:56;20.88;;;13.55;;
42834;SDS011;29335;50.526;30.458;2022-10-29T10:57:58;15.70;;;12.45;;
42834;SDS011;29335;50.526;30.458;2022-10-29T11:00:52;15.50;;;12.60;;
42834;SDS011;29335;50.526;30.458;2022-10-29T11:06:13;15.73;;;12.48;;
42834;SDS011;29335;50.526;30.458;2022-10-29T11:11:32;19.15;;;12.50;;
42834;SDS011;29335;50.526;30.458;2022-10-29T11:14:42;15.60;;;12.00;;
42834;SDS011;29335;50.526;30.458;2022-10-29T11:17:19;17.10;;;12.10;;
42834;SDS011;29335;50.526;30.458;2022-10-29T11:19:50;16.77;;;12.05;;
42834;SDS011;29335;50.526;30.458;2022-10-29T11:25:07;13.90;;;11.73;;
42834;SDS011;29335;50.526;30.458;2022-10-29T11:30:22;14.35;;;11.60;;
42834;SDS011;29335;50.526;30.458;2022-10-29T11:32:57;15.35;;;11.50;;
42834;SDS011;29335;50.526;30.458;2022-10-29T11:35:31;13.82;;;11.10;;
42834;SDS011;29335;50.526;30.458;2022-10-29T11:38:29;14.00;;;10.80;;
42834;SDS011;29335;50.526;30.458;2022-10-29T11:41:20;16.92;;;11.23;;
42834;SDS011;29335;50.526;30.458;2022-10-29T11:44:13;16.27;;;11.18;;
42834;SDS011;29335;50.526;30.458;2022-10-29T11:47:03;14.30;;;10.50;;
42834;SDS011;29335;50.526;30.458;2022-10-29T11:49:47;15.15;;;10.15;;
42834;SDS011;29335;50.526;30.458;2022-10-29T11:55:19;17.65;;;10.45;;
42834;SDS011;29335;50.526;30.458;2022-10-29T12:00:23;17.63;;;10.98;;
42834;SDS011;29335;50.526;30.458;2022-10-29T12:05:27;14.95;;;10.23;;
42834;SDS011;29335;50.526;30.458;2022-10-29T12:23:56;13.57;;;10.02;;
42834;SDS011;29335;50.526;30.458;2022-10-29T12:26:43;15.05;;;10.70;;
42834;SDS011;29335;50.526;30.458;2022-10-29T12:29:15;15.52;;;10.73;;
42834;SDS011;29335;50.526;30.458;2022-10-29T12:31:49;14.45;;;10.45;;
42834;SDS011;29335;50.526;30.458;2022-10-29T12:34:26;13.90;;;9.82;;
42834;SDS011;29335;50.526;30.458;2022-10-29T12:36:59;13.35;;;10.40;;
42834;SDS011;29335;50.526;30.458;2022-10-29T12:39:38;16.65;;;10.00;;
42834;SDS011;29335;50.526;30.458;2022-10-29T12:42:16;12.10;;;9.45;;
42834;SDS011;29335;50.526;30.458;2022-10-29T12:47:32;15.27;;;9.55;;
42834;SDS011;29335;50.526;30.458;2022-10-29T12:50:05;14.30;;;9.20;;
42834;SDS011;29335;50.526;30.458;2022-10-29T12:52:56;12.88;;;9.43;;
42834;SDS011;29335;50.526;30.458;2022-10-29T12:55:45;11.65;;;9.20;;
42834;SDS011;29335;50.526;30.458;2022-10-29T13:14:13;14.75;;;9.95;;
42834;SDS011;29335;50.526;30.458;2022-10-29T13:16:59;13.00;;;9.48;;
42834;SDS011;29335;50.526;30.458;2022-10-29T13:19:34;14.32;;;10.77;;
42834;SDS011;29335;50.526;30.458;2022-10-29T13:24:43;14.48;;;8.98;;
42834;SDS011;29335;50.526;30.458;2022-10-29T13:29:44;11.27;;;8.63;;
42834;SDS011;29335;50.526;30.458;2022-10-29T13:34:57;22.92;;;17.58;;
42834;SDS011;29335;50.526;30.458;2022-10-29T13:43:00;17.73;;;12.05;;
42834;SDS011;29335;50.526;30.458;2022-10-29T13:45:35;19.13;;;13.70;;
42834;SDS011;29335;50.526;30.458;2022-10-29T13:48:04;11.75;;;8.68;;
42834;SDS011;29335;50.526;30.458;2022-10-29T13:50:35;13.85;;;7.65;;
42834;SDS011;29335;50.526;30.458;2022-10-29T13:53:04;12.65;;;8.60;;
42834;SDS011;29335;50.526;30.458;2022-10-29T13:55:34;16.02;;;9.93;;
42834;SDS011;29335;50.526;30.458;2022-10-29T13:58:14;12.45;;;9.00;;
42834;SDS011;29335;50.526;30.458;2022-10-29T14:00:46;14.50;;;8.07;;
42834;SDS011;29335;50.526;30.458;2022-10-29T14:03:19;12.98;;;7.85;;
42834;SDS011;29335;50.526;30.458;2022-10-29T14:05:58;10.25;;;7.90;;
42834;SDS011;29335;50.526;30.458;2022-10-29T14:08:40;12.27;;;7.03;;
42834;SDS011;29335;50.526;30.458;2022-10-29T14:11:34;13.40;;;7.82;;
42834;SDS011;29335;50.526;30.458;2022-10-29T14:14:02;11.75;;;7.18;;
42834;SDS011;29335;50.526;30.458;2022-10-29T14:16:30;11.93;;;7.40;;
42834;SDS011;29335;50.526;30.458;2022-10-29T14:18:57;11.15;;;7.07;;
42834;SDS011;29335;50.526;30.458;2022-10-29T14:21:37;13.85;;;7.50;;
42834;SDS011;29335;50.526;30.458;2022-10-29T14:24:04;10.40;;;7.00;;
42834;SDS011;29335;50.526;30.458;2022-10-29T14:26:33;10.05;;;7.43;;
42834;SDS011;29335;50.526;30.458;2022-10-29T14:29:17;11.98;;;7.38;;
42834;SDS011;29335;50.526;30.458;2022-10-29T14:34:32;10.38;;;7.90;;
42834;SDS011;29335;50.526;30.458;2022-10-29T14:37:05;12.75;;;8.00;;
42834;SDS011;29335;50.526;30.458;2022-10-29T14:39:41;13.35;;;8.57;;
42834;SDS011;29335;50.526;30.458;2022-10-29T14:42:22;12.80;;;8.57;;
42834;SDS011;29335;50.526;30.458;2022-10-29T14:44:58;14.20;;;8.52;;
42834;SDS011;29335;50.526;30.458;2022-10-29T14:47:28;11.52;;;8.07;;
42834;SDS011;29335;50.526;30.458;2022-10-29T14:49:55;12.93;;;8.32;;
42834;SDS011;29335;50.526;30.458;2022-10-29T14:52:32;12.82;;;8.05;;
42834;SDS011;29335;50.526;30.458;2022-10-29T14:55:06;17.77;;;8.40;;
42834;SDS011;29335;50.526;30.458;2022-10-29T14:57:39;12.95;;;8.77;;
42834;SDS011;29335;50.526;30.458;2022-10-29T15:00:17;12.07;;;8.18;;
42834;SDS011;29335;50.526;30.458;2022-10-29T15:02:47;12.40;;;8.32;;
42834;SDS011;29335;50.526;30.458;2022-10-29T15:07:49;13.07;;;8.45;;
42834;SDS011;29335;50.526;30.458;2022-10-29T15:10:22;12.02;;;8.25;;
42834;SDS011;29335;50.526;30.458;2022-10-29T15:12:49;12.23;;;8.75;;
42834;SDS011;29335;50.526;30.458;2022-10-29T15:18:01;11.75;;;8.52;;
42834;SDS011;29335;50.526;30.458;2022-10-29T15:20:35;11.52;;;8.23;;
42834;SDS011;29335;50.526;30.458;2022-10-29T15:23:16;11.32;;;7.80;;
42834;SDS011;29335;50.526;30.458;2022-10-29T15:25:47;14.95;;;8.43;;
42834;SDS011;29335;50.526;30.458;2022-10-29T15:28:23;11.15;;;8.25;;
42834;SDS011;29335;50.526;30.458;2022-10-29T15:30:51;15.98;;;9.70;;
42834;SDS011;29335;50.526;30.458;2022-10-29T15:33:19;14.05;;;9.52;;
42834;SDS011;29335;50.526;30.458;2022-10-29T15:35:49;11.40;;;8.20;;
42834;SDS011;29335;50.526;30.458;2022-10-29T15:43:33;15.32;;;8.25;;
42834;SDS011;29335;50.526;30.458;2022-10-29T15:46:11;15.88;;;7.75;;
42834;SDS011;29335;50.526;30.458;2022-10-29T15:48:44;12.65;;;8.43;;
42834;SDS011;29335;50.526;30.458;2022-10-29T15:51:10;15.35;;;8.10;;
42834;SDS011;29335;50.526;30.458;2022-10-29T15:53:36;13.52;;;7.65;;
42834;SDS011;29335;50.526;30.458;2022-10-29T15:56:01;12.32;;;7.88;;
42834;SDS011;29335;50.526;30.458;2022-10-29T15:58:27;10.90;;;7.63;;
42834;SDS011;29335;50.526;30.458;2022-10-29T16:00:53;14.73;;;7.93;;
42834;SDS011;29335;50.526;30.458;2022-10-29T16:03:20;10.80;;;7.05;;
42834;SDS011;29335;50.526;30.458;2022-10-29T16:05:52;12.05;;;7.55;;
42834;SDS011;29335;50.526;30.458;2022-10-29T16:08:28;14.32;;;8.25;;
42834;SDS011;29335;50.526;30.458;2022-10-29T16:10:58;11.95;;;7.63;;
42834;SDS011;29335;50.526;30.458;2022-10-29T16:13:26;14.70;;;7.95;;
42834;SDS011;29335;50.526;30.458;2022-10-29T16:15:53;13.10;;;7.70;;
42834;SDS011;29335;50.526;30.458;2022-10-29T16:18:19;12.50;;;7.65;;
42834;SDS011;29335;50.526;30.458;2022-10-29T16:20:46;11.90;;;7.85;;
42834;SDS011;29335;50.526;30.458;2022-10-29T16:23:12;11.48;;;7.57;;
42834;SDS011;29335;50.526;30.458;2022-10-29T16:25:38;17.50;;;8.32;;
42834;SDS011;29335;50.526;30.458;2022-10-29T16:28:05;16.20;;;8.10;;
42834;SDS011;29335;50.526;30.458;2022-10-29T16:30:31;15.18;;;8.15;;
42834;SDS011;29335;50.526;30.458;2022-10-29T16:32:58;11.48;;;7.28;;
42834;SDS011;29335;50.526;30.458;2022-10-29T16:35:25;14.32;;;7.63;;
42834;SDS011;29335;50.526;30.458;2022-10-29T16:37:52;12.48;;;7.22;;
42834;SDS011;29335;50.526;30.458;2022-10-29T16:40:20;17.95;;;7.18;;
42834;SDS011;29335;50.526;30.458;2022-10-29T16:42:48;13.88;;;7.30;;
42834;SDS011;29335;50.526;30.458;2022-10-29T16:45:15;15.65;;;7.68;;
42834;SDS011;29335;50.526;30.458;2022-10-29T16:47:42;11.10;;;5.95;;
42834;SDS011;29335;50.526;30.458;2022-10-29T16:50:24;11.32;;;6.68;;
42834;SDS011;29335;50.526;30.458;2022-10-29T16:52:55;13.68;;;6.55;;
42834;SDS011;29335;50.526;30.458;2022-10-29T16:55:26;15.55;;;7.72;;
42834;SDS011;29335;50.526;30.458;2022-10-29T16:57:52;11.02;;;6.38;;
42834;SDS011;29335;50.526;30.458;2022-10-29T17:00:18;14.48;;;6.82;;